createdAt,value
2019-02-20T00:01:48.260Z,15.67
2019-02-20T00:03:55.368Z,16.83
2019-02-20T00:06:04.135Z,16.90
2019-02-20T00:08:11.364Z,13.63
2019-02-20T00:10:18.254Z,16.87
2019-02-20T00:12:25.534Z,12.90
2019-02-20T00:14:32.346Z,13.20
2019-02-20T00:16:39.673Z,13.40
2019-02-20T00:18:46.451Z,14.00
2019-02-20T00:20:53.407Z,16.27
2019-02-20T00:23:00.330Z,12.53
2019-02-20T00:25:08.529Z,15.30
2019-02-20T00:27:16.700Z,11.20
2019-02-20T00:29:23.738Z,17.37
2019-02-20T00:31:30.528Z,11.37
2019-02-20T00:33:37.612Z,13.23
2019-02-20T00:35:44.380Z,14.37
2019-02-20T00:37:51.881Z,15.23
2019-02-20T00:39:58.897Z,14.67
2019-02-20T00:42:05.920Z,11.57
2019-02-20T00:44:17.386Z,13.93
2019-02-20T00:46:29.384Z,16.33
2019-02-20T00:48:44.645Z,15.50
2019-02-20T00:51:12.108Z,10.63
2019-02-20T00:53:23.794Z,12.97
2019-02-20T00:55:31.112Z,12.87
2019-02-20T00:57:37.938Z,12.90
2019-02-20T00:59:44.826Z,13.43
2019-02-20T01:01:51.687Z,18.53
2019-02-20T01:04:00.053Z,12.83
2019-02-20T01:06:06.896Z,11.17
2019-02-20T01:08:14.273Z,15.47
2019-02-20T01:10:21.466Z,11.53
2019-02-20T01:12:28.162Z,13.07
2019-02-20T01:14:35.025Z,12.87
2019-02-20T01:16:41.849Z,10.00
2019-02-20T01:18:48.847Z,12.13
2019-02-20T01:20:55.717Z,16.90
2019-02-20T01:23:02.756Z,10.73
2019-02-20T01:25:09.797Z,10.10
2019-02-20T01:27:16.522Z,9.90
2019-02-20T01:29:25.193Z,10.93
2019-02-20T01:31:31.507Z,10.43
2019-02-20T01:33:37.662Z,10.50
2019-02-20T01:35:43.823Z,10.43
2019-02-20T01:37:50.289Z,9.63
2019-02-20T01:39:56.429Z,10.00
2019-02-20T01:42:02.701Z,8.90
2019-02-20T01:44:08.754Z,8.23
2019-02-20T01:46:16.164Z,7.17
2019-02-20T01:48:22.400Z,9.47
2019-02-20T01:50:28.446Z,8.87
2019-02-20T01:52:34.823Z,9.60
2019-02-20T01:54:42.134Z,6.83
2019-02-20T01:56:48.263Z,12.77
2019-02-20T01:58:54.302Z,10.63
2019-02-20T02:01:01.807Z,13.00
2019-02-20T02:03:08.052Z,9.00
2019-02-20T02:05:15.757Z,9.27
2019-02-20T02:07:22.118Z,14.13
2019-02-20T02:09:28.504Z,9.70
2019-02-20T02:11:34.940Z,8.63
2019-02-20T02:13:41.274Z,9.43
2019-02-20T02:15:47.670Z,10.07
2019-02-20T02:17:54.068Z,7.50
2019-02-20T02:20:00.319Z,7.83
2019-02-20T02:22:06.657Z,7.80
2019-02-20T02:24:12.919Z,9.20
2019-02-20T02:26:19.069Z,6.43
2019-02-20T02:28:25.339Z,7.13
2019-02-20T02:30:31.500Z,6.17
2019-02-20T02:32:37.557Z,7.17
2019-02-20T02:34:43.926Z,9.67
2019-02-20T02:36:50.084Z,5.27
2019-02-20T02:38:56.231Z,6.83
2019-02-20T02:41:02.392Z,6.30
2019-02-20T02:43:08.568Z,6.77
2019-02-20T02:45:14.822Z,8.43
2019-02-20T02:47:20.959Z,9.03
2019-02-20T02:49:30.130Z,5.43
2019-02-20T02:51:36.237Z,9.33
2019-02-20T02:53:42.395Z,8.77
2019-02-20T02:55:48.672Z,6.60
2019-02-20T02:57:56.172Z,6.03
2019-02-20T03:00:02.313Z,8.37
2019-02-20T03:02:08.587Z,6.13
2019-02-20T03:04:14.862Z,9.30
2019-02-20T03:06:21.298Z,4.67
2019-02-20T03:08:27.458Z,8.43
2019-02-20T03:10:33.497Z,5.53
2019-02-20T03:12:39.658Z,7.07
2019-02-20T03:14:45.816Z,7.80
2019-02-20T03:16:52.085Z,8.20
2019-02-20T03:18:58.253Z,7.37
2019-02-20T03:21:04.744Z,6.47
2019-02-20T03:23:11.085Z,6.33
2019-02-20T03:25:18.474Z,5.77
2019-02-20T03:27:24.726Z,5.03
2019-02-20T03:29:30.875Z,7.93
2019-02-20T03:31:37.139Z,7.83
2019-02-20T03:33:43.292Z,6.30
2019-02-20T03:35:49.550Z,9.90
2019-02-20T03:37:55.900Z,5.90
2019-02-20T03:40:02.294Z,4.77
2019-02-20T03:42:08.445Z,6.60
2019-02-20T03:44:14.615Z,7.57
2019-02-20T03:46:20.765Z,5.23
2019-02-20T03:48:28.029Z,10.03
2019-02-20T03:50:34.197Z,9.13
2019-02-20T03:52:40.250Z,7.40
2019-02-20T03:54:46.602Z,6.87
2019-02-20T03:56:52.755Z,6.40
2019-02-20T03:58:59.847Z,13.17
2019-02-20T04:01:06.004Z,6.43
2019-02-20T04:03:12.037Z,9.00
2019-02-20T04:05:18.513Z,7.63
2019-02-20T04:07:24.689Z,7.90
2019-02-20T04:09:31.249Z,4.73
2019-02-20T04:11:37.397Z,8.50
2019-02-20T04:13:43.473Z,4.13
2019-02-20T04:15:50.199Z,4.73
2019-02-20T04:17:56.245Z,3.97
2019-02-20T04:20:02.756Z,6.70
2019-02-20T04:22:09.340Z,8.53
2019-02-20T04:24:15.528Z,9.53
2019-02-20T04:26:21.537Z,6.33
2019-02-20T04:28:27.897Z,11.77
2019-02-20T04:30:34.475Z,6.10
2019-02-20T04:32:40.855Z,6.37
2019-02-20T04:34:47.105Z,4.17
2019-02-20T04:36:53.274Z,5.10
2019-02-20T04:38:59.789Z,4.07
2019-02-20T04:41:05.968Z,7.90
2019-02-20T04:43:12.129Z,8.33
2019-02-20T04:45:18.289Z,4.50
2019-02-20T04:47:25.081Z,6.90
2019-02-20T04:49:31.298Z,5.37
2019-02-20T04:51:37.923Z,3.27
2019-02-20T04:53:44.222Z,6.97
2019-02-20T04:55:50.522Z,7.37
2019-02-20T04:58:18.907Z,5.03
2019-02-20T05:00:25.174Z,5.73
2019-02-20T05:02:31.833Z,10.63
2019-02-20T05:04:38.528Z,8.77
2019-02-20T05:06:45.205Z,6.53
2019-02-20T05:08:51.286Z,5.67
2019-02-20T05:10:58.826Z,8.63
2019-02-20T05:13:05.676Z,8.13
2019-02-20T05:15:13.162Z,7.77
2019-02-20T05:17:19.206Z,12.87
2019-02-20T05:19:25.546Z,8.27
2019-02-20T05:21:43.749Z,8.57
2019-02-20T05:23:49.978Z,6.00
2019-02-20T05:25:56.142Z,8.07
2019-02-20T05:28:02.203Z,8.87
2019-02-20T05:30:09.978Z,7.57
2019-02-20T05:32:16.152Z,10.87
2019-02-20T05:34:22.719Z,6.43
2019-02-20T05:36:28.774Z,8.97
2019-02-20T05:38:34.918Z,11.73
2019-02-20T05:40:41.104Z,9.57
2019-02-20T05:42:48.386Z,7.20
2019-02-20T05:44:54.847Z,10.17
2019-02-20T05:47:01.210Z,10.50
2019-02-20T05:49:07.364Z,9.33
2019-02-20T05:51:13.724Z,8.80
2019-02-20T05:53:19.874Z,9.63
2019-02-20T05:55:26.250Z,9.37
2019-02-20T05:57:32.402Z,8.60
2019-02-20T05:59:38.565Z,11.37
2019-02-20T06:01:44.815Z,8.70
2019-02-20T06:03:51.860Z,7.93
2019-02-20T06:05:58.249Z,9.47
2019-02-20T06:08:04.424Z,8.73
2019-02-20T06:10:11.291Z,8.90
2019-02-20T06:12:17.341Z,11.23
2019-02-20T06:14:23.468Z,7.70
2019-02-20T06:16:29.765Z,11.97
2019-02-20T06:18:36.037Z,9.87
2019-02-20T06:20:42.175Z,7.40
2019-02-20T06:22:48.650Z,9.97
2019-02-20T06:24:54.697Z,7.63
2019-02-20T06:27:00.973Z,13.93
2019-02-20T06:29:07.211Z,9.77
2019-02-20T06:31:13.371Z,9.33
2019-02-20T06:33:19.541Z,8.27
2019-02-20T06:35:25.719Z,10.57
2019-02-20T06:37:31.855Z,6.50
2019-02-20T06:39:38.104Z,10.33
2019-02-20T06:41:44.282Z,10.07
2019-02-20T06:43:50.544Z,8.80
2019-02-20T06:45:56.685Z,10.17
2019-02-20T06:48:02.856Z,13.17
2019-02-20T06:50:10.360Z,7.67
2019-02-20T06:52:16.410Z,8.80
2019-02-20T06:54:22.654Z,13.60
2019-02-20T06:56:28.824Z,6.53
2019-02-20T06:58:34.979Z,5.03
2019-02-20T07:00:41.100Z,6.23
2019-02-20T07:02:47.286Z,7.67
2019-02-20T07:05:35.020Z,8.80
2019-02-20T07:07:45.528Z,13.27
2019-02-20T07:09:58.704Z,6.57
2019-02-20T07:12:24.096Z,6.97
2019-02-20T07:14:52.664Z,7.13
2019-02-20T07:17:39.825Z,6.40
2019-02-20T07:20:02.357Z,7.03
2019-02-20T07:22:34.326Z,11.93
2019-02-20T07:24:47.441Z,9.20
2019-02-20T07:27:29.446Z,11.60
2019-02-20T07:30:02.340Z,11.33
2019-02-20T07:32:09.411Z,10.03
2019-02-20T07:34:15.863Z,12.07
2019-02-20T07:36:21.962Z,11.33
2019-02-20T07:38:28.114Z,11.83
2019-02-20T07:40:34.254Z,9.07
2019-02-20T07:42:40.364Z,11.50
2019-02-20T07:46:59.358Z,10.77
2019-02-20T07:49:05.522Z,11.67
2019-02-20T07:51:11.672Z,6.77
2019-02-20T07:53:17.799Z,11.47
2019-02-20T07:55:24.831Z,8.90
2019-02-20T07:57:31.139Z,9.17
2019-02-20T07:59:37.434Z,10.73
2019-02-20T08:01:43.629Z,6.77
2019-02-20T08:03:49.635Z,11.37
2019-02-20T08:05:55.717Z,9.87
2019-02-20T08:08:02.285Z,7.73
2019-02-20T08:10:12.004Z,6.60
2019-02-20T08:12:18.195Z,7.97
2019-02-20T08:14:24.229Z,5.60
2019-02-20T08:16:30.503Z,9.70
2019-02-20T08:18:37.990Z,7.10
2019-02-20T08:20:44.229Z,4.87
2019-02-20T08:22:50.296Z,5.80
2019-02-20T08:24:56.475Z,11.53
2019-02-20T08:27:02.737Z,7.83
2019-02-20T08:29:09.903Z,7.73
2019-02-20T08:31:16.040Z,10.27
2019-02-20T08:33:22.226Z,6.43
2019-02-20T08:35:28.473Z,9.47
2019-02-20T08:37:34.624Z,4.73
2019-02-20T08:39:40.924Z,10.57
2019-02-20T08:41:47.058Z,8.63
2019-02-20T08:43:54.333Z,8.63
2019-02-20T08:46:00.459Z,6.77
2019-02-20T08:48:09.821Z,6.47
2019-02-20T08:50:16.930Z,8.27
2019-02-20T08:52:23.273Z,11.87
2019-02-20T08:54:29.521Z,12.03
2019-02-20T08:56:35.591Z,8.10
2019-02-20T08:58:41.841Z,7.87
2019-02-20T09:00:48.220Z,7.77
2019-02-20T09:02:54.475Z,6.47
2019-02-20T09:05:00.727Z,8.17
2019-02-20T09:07:06.882Z,7.20
2019-02-20T09:09:13.087Z,8.33
2019-02-20T09:11:19.402Z,10.23
2019-02-20T09:13:25.563Z,11.50
2019-02-20T09:15:31.711Z,8.90
2019-02-20T09:17:39.307Z,6.03
2019-02-20T09:19:47.509Z,9.70
2019-02-20T09:21:53.896Z,6.73
2019-02-20T09:24:00.043Z,4.03
2019-02-20T09:26:06.180Z,9.27
2019-02-20T09:28:13.995Z,7.80
2019-02-20T09:30:28.256Z,7.63
2019-02-20T09:32:27.827Z,6.23
2019-02-20T09:34:34.528Z,4.37
2019-02-20T09:36:40.515Z,5.43
2019-02-20T09:38:46.622Z,8.73
2019-02-20T09:53:04.143Z,5.67
2019-02-20T09:55:14.382Z,9.83
2019-02-20T09:57:20.650Z,5.23
2019-02-20T09:59:26.806Z,9.30
2019-02-20T10:01:44.737Z,9.17
2019-02-20T10:03:51.813Z,6.63
2019-02-20T10:05:58.063Z,5.90
2019-02-20T10:08:05.372Z,4.57
2019-02-20T10:10:13.061Z,6.10
2019-02-20T10:12:19.307Z,9.00
2019-02-20T10:14:25.576Z,9.13
2019-02-20T10:16:31.741Z,5.77
2019-02-20T10:18:38.074Z,4.83
2019-02-20T10:20:44.175Z,7.47
2019-02-20T10:22:50.399Z,6.87
2019-02-20T10:24:56.584Z,6.93
2019-02-20T10:27:02.726Z,7.60
2019-02-20T10:29:08.776Z,5.67
2019-02-20T10:31:14.846Z,4.30
2019-02-20T10:33:20.945Z,5.27
2019-02-20T10:35:27.015Z,5.13
2019-02-20T10:37:33.196Z,6.30
2019-02-20T10:39:39.378Z,4.37
2019-02-20T10:41:45.615Z,6.00
2019-02-20T10:43:51.925Z,6.13
2019-02-20T10:45:58.152Z,5.77
2019-02-20T10:48:04.428Z,3.07
2019-02-20T10:50:13.313Z,4.53
2019-02-20T10:52:20.398Z,2.27
2019-02-20T10:54:27.095Z,5.13
2019-02-20T10:56:33.541Z,6.50
2019-02-20T10:58:39.719Z,3.93
2019-02-20T11:00:46.157Z,5.53
2019-02-20T11:02:52.415Z,5.43
2019-02-20T11:04:58.565Z,4.07
2019-02-20T11:07:04.747Z,3.43
2019-02-20T11:09:12.023Z,6.70
2019-02-20T11:11:18.178Z,5.67
2019-02-20T11:13:24.297Z,2.80
2019-02-20T11:15:30.844Z,6.80
2019-02-20T11:17:37.387Z,6.23
2019-02-20T11:19:43.940Z,9.90
2019-02-20T11:21:50.100Z,3.63
2019-02-20T11:23:57.801Z,6.23
2019-02-20T11:26:04.872Z,4.50
2019-02-20T11:28:11.243Z,3.53
2019-02-20T11:30:22.092Z,3.63
2019-02-20T11:32:28.161Z,4.33
2019-02-20T11:34:34.338Z,4.20
2019-02-20T11:36:40.603Z,5.73
2019-02-20T11:38:47.039Z,5.00
2019-02-20T11:40:53.215Z,2.77
2019-02-20T11:42:59.316Z,1.80
2019-02-20T11:45:11.552Z,3.53
2019-02-20T11:47:17.720Z,3.87
2019-02-20T11:49:23.881Z,5.13
2019-02-20T11:51:30.148Z,6.67
2019-02-20T11:53:37.416Z,8.13
2019-02-20T11:55:43.972Z,4.37
2019-02-20T11:57:50.249Z,4.57
2019-02-20T11:59:56.512Z,81.53
2019-02-20T12:02:02.611Z,9.80
2019-02-20T12:04:09.700Z,8.00
2019-02-20T12:06:15.901Z,21.23
2019-02-20T12:08:22.072Z,7.80
2019-02-20T12:10:28.304Z,12.43
2019-02-20T12:12:34.512Z,18.00
2019-02-20T12:14:40.742Z,5.67
2019-02-20T12:16:46.735Z,6.17
2019-02-20T12:18:52.843Z,7.53
2019-02-20T12:20:59.232Z,7.33
2019-02-20T12:23:05.474Z,5.37
2019-02-20T12:25:12.354Z,7.87
2019-02-20T12:27:18.503Z,4.83
2019-02-20T12:29:24.676Z,11.10
2019-02-20T12:31:30.936Z,39.07
2019-02-20T12:33:37.127Z,4.53
2019-02-20T12:35:43.368Z,8.97
2019-02-20T12:37:49.435Z,4.77
2019-02-20T12:39:55.563Z,8.70
2019-02-20T12:42:01.714Z,10.27
2019-02-20T12:44:07.879Z,11.27
2019-02-20T12:46:14.042Z,9.97
2019-02-20T12:48:20.310Z,6.87
2019-02-20T12:50:26.561Z,5.83
2019-02-20T12:52:32.723Z,16.87
2019-02-20T12:54:38.996Z,32.33
2019-02-20T12:56:45.249Z,17.07
2019-02-20T12:58:53.859Z,6.67
2019-02-20T13:01:00.217Z,12.27
2019-02-20T13:03:07.293Z,10.60
2019-02-20T13:05:13.458Z,6.80
2019-02-20T13:07:21.449Z,3.70
2019-02-20T13:09:27.645Z,9.17
2019-02-20T13:11:33.874Z,5.77
2019-02-20T13:13:40.155Z,7.93
2019-02-20T13:15:46.405Z,4.20
2019-02-20T13:17:52.664Z,5.43
2019-02-20T13:19:58.965Z,6.77
2019-02-20T13:22:05.154Z,5.93
2019-02-20T13:24:11.345Z,6.87
2019-02-20T13:26:17.607Z,15.17
2019-02-20T13:28:23.827Z,12.27
2019-02-20T13:30:30.005Z,9.73
2019-02-20T13:32:36.252Z,8.40
2019-02-20T13:34:42.426Z,8.30
2019-02-20T13:36:48.603Z,4.37
2019-02-20T13:38:54.857Z,3.93
2019-02-20T13:41:01.108Z,11.03
2019-02-20T13:43:07.689Z,29.00
2019-02-20T13:45:13.872Z,19.43
2019-02-20T13:47:20.214Z,13.30
2019-02-20T13:49:27.483Z,6.13
2019-02-20T13:51:34.662Z,6.73
2019-02-20T13:53:46.355Z,8.60
2019-02-20T13:55:48.832Z,5.57
2019-02-20T13:57:54.981Z,4.13
2019-02-20T14:00:01.144Z,4.07
2019-02-20T14:02:08.930Z,7.30
2019-02-20T14:04:16.574Z,6.27
2019-02-20T14:06:23.423Z,9.13
2019-02-20T14:08:30.050Z,11.87
2019-02-20T14:10:36.331Z,7.57
2019-02-20T14:12:42.591Z,5.73
2019-02-20T14:14:48.875Z,8.20
2019-02-20T14:16:55.121Z,5.73
2019-02-20T14:19:01.389Z,8.33
2019-02-20T14:21:09.346Z,13.13
2019-02-20T14:23:15.645Z,13.53
2019-02-20T14:25:22.209Z,11.20
2019-02-20T14:27:28.485Z,9.07
2019-02-20T14:29:34.803Z,12.57
2019-02-20T14:31:42.820Z,10.60
2019-02-20T14:33:49.315Z,10.30
2019-02-20T14:35:55.765Z,11.97
2019-02-20T14:38:02.095Z,17.27
2019-02-20T14:40:11.428Z,15.83
2019-02-20T14:42:19.046Z,8.17
2019-02-20T14:44:25.304Z,8.07
2019-02-20T14:46:33.291Z,14.07
2019-02-20T14:48:39.565Z,11.37
2019-02-20T14:50:45.751Z,13.93
2019-02-20T14:52:52.009Z,11.53
2019-02-20T14:54:58.213Z,13.10
2019-02-20T14:57:05.802Z,10.53
2019-02-20T14:59:12.724Z,12.73
2019-02-20T15:01:19.070Z,17.30
2019-02-20T15:03:25.125Z,11.60
2019-02-20T15:05:31.679Z,27.63
2019-02-20T15:07:37.964Z,26.73
2019-02-20T15:09:44.223Z,8.70
2019-02-20T15:11:50.896Z,15.93
2019-02-20T15:13:57.142Z,14.60
2019-02-20T15:16:03.410Z,10.73
2019-02-20T15:18:09.683Z,10.27
2019-02-20T15:20:16.140Z,18.13
2019-02-20T15:22:22.609Z,13.40
2019-02-20T15:24:29.558Z,19.70
2019-02-20T15:26:37.142Z,15.03
2019-02-20T15:28:43.621Z,9.67
2019-02-20T15:30:49.914Z,18.43
2019-02-20T15:32:56.261Z,16.77
2019-02-20T15:35:02.514Z,12.63
2019-02-20T15:37:09.820Z,26.80
2019-02-20T15:39:16.573Z,23.77
2019-02-20T15:41:23.121Z,17.17
2019-02-20T15:43:29.594Z,27.43
2019-02-20T15:45:35.913Z,12.20
2019-02-20T15:47:44.061Z,20.00
2019-02-20T15:49:51.155Z,29.07
2019-02-20T15:51:57.715Z,18.13
2019-02-20T15:54:03.969Z,9.60
2019-02-20T15:56:11.878Z,8.67
2019-02-20T15:58:18.264Z,15.03
2019-02-20T16:00:26.351Z,12.07
2019-02-20T16:02:33.234Z,11.53
2019-02-20T16:04:41.933Z,12.03
2019-02-20T16:06:48.278Z,13.67
2019-02-20T16:08:54.795Z,9.93
2019-02-20T16:11:02.886Z,19.93
2019-02-20T16:13:09.132Z,16.40
2019-02-20T16:15:16.223Z,17.43
2019-02-20T16:17:22.679Z,7.97
2019-02-20T16:19:30.554Z,11.27
2019-02-20T16:21:37.024Z,7.47
2019-02-20T16:23:44.846Z,13.80
2019-02-20T16:25:51.081Z,16.23
2019-02-20T16:27:57.479Z,16.37
2019-02-20T16:30:06.365Z,66.30
2019-02-20T16:32:14.575Z,19.33
2019-02-20T16:34:22.725Z,9.90
2019-02-20T16:36:29.152Z,11.30
2019-02-20T16:38:36.792Z,8.57
2019-02-20T16:40:44.175Z,12.70
2019-02-20T16:42:52.925Z,7.60
2019-02-20T16:44:59.846Z,7.63
2019-02-20T16:47:06.634Z,12.53
2019-02-20T16:49:14.215Z,9.73
2019-02-20T16:51:20.842Z,17.13
2019-02-20T16:53:27.304Z,9.10
2019-02-20T16:55:34.497Z,11.23
2019-02-20T16:57:40.951Z,12.13
2019-02-20T16:59:47.427Z,9.07
2019-02-20T17:01:53.811Z,13.53
2019-02-20T17:04:00.207Z,9.73
2019-02-20T17:06:06.592Z,9.20
2019-02-20T17:08:15.038Z,8.80
2019-02-20T17:10:21.620Z,12.97
2019-02-20T17:12:28.277Z,12.83
2019-02-20T17:14:36.538Z,13.70
2019-02-20T17:16:42.790Z,19.93
2019-02-20T17:18:49.316Z,29.73
2019-02-20T17:20:56.192Z,16.73
2019-02-20T17:23:02.578Z,8.97
2019-02-20T17:25:12.547Z,18.23
2019-02-20T17:27:19.157Z,10.13
2019-02-20T17:29:25.611Z,14.60
2019-02-20T17:31:31.916Z,19.90
2019-02-20T17:33:39.675Z,14.77
2019-02-20T17:35:47.015Z,17.53
2019-02-20T17:37:53.497Z,21.33
2019-02-20T17:40:00.270Z,13.17
2019-02-20T17:42:07.195Z,13.63
2019-02-20T17:44:14.976Z,11.00
2019-02-20T17:46:26.762Z,12.17
2019-02-20T17:48:35.010Z,5.57
2019-02-20T17:50:41.815Z,9.47
2019-02-20T17:52:50.058Z,13.90
2019-02-20T17:54:56.615Z,14.13
2019-02-20T17:57:03.314Z,10.50
2019-02-20T17:59:10.416Z,17.53
2019-02-20T18:01:17.017Z,16.40
2019-02-20T18:03:23.514Z,7.33
2019-02-20T18:05:30.137Z,19.80
2019-02-20T18:07:37.005Z,10.63
2019-02-20T18:09:43.510Z,12.90
2019-02-20T18:11:50.891Z,10.57
2019-02-20T18:13:58.048Z,15.23
2019-02-20T18:16:06.548Z,16.63
2019-02-20T18:18:13.183Z,13.17
2019-02-20T18:20:21.263Z,11.27
2019-02-20T18:22:29.486Z,8.97
2019-02-20T18:24:37.315Z,13.27
2019-02-20T18:26:43.855Z,18.40
2019-02-20T18:28:50.271Z,6.57
2019-02-20T18:30:56.927Z,22.57
2019-02-20T18:33:03.832Z,9.90
2019-02-20T18:35:14.447Z,13.77
2019-02-20T18:37:22.426Z,12.13
2019-02-20T18:39:29.109Z,13.10
2019-02-20T18:41:35.806Z,15.43
2019-02-20T18:43:42.481Z,7.70
2019-02-20T18:45:49.148Z,7.70
2019-02-20T18:47:55.817Z,12.00
2019-02-20T18:50:03.418Z,9.20
2019-02-20T18:52:10.280Z,9.53
2019-02-20T18:54:17.458Z,11.63
2019-02-20T18:56:25.097Z,13.47
2019-02-20T18:58:34.004Z,8.63
2019-02-20T19:00:41.133Z,20.83
2019-02-20T19:02:51.899Z,10.07
2019-02-20T19:04:58.877Z,10.10
2019-02-20T19:07:14.698Z,10.53
2019-02-20T19:09:24.450Z,17.70
2019-02-20T19:11:37.984Z,7.87
2019-02-20T19:14:12.964Z,13.43
2019-02-20T19:16:44.961Z,13.30
2019-02-20T19:19:10.344Z,12.33
2019-02-20T19:21:23.992Z,11.30
2019-02-20T19:24:00.544Z,9.47
2019-02-20T19:26:14.299Z,8.40
2019-02-20T19:28:43.850Z,12.93
2019-02-20T19:30:51.620Z,15.33
2019-02-20T19:33:14.343Z,13.10
2019-02-20T19:35:51.959Z,14.57
2019-02-20T19:38:36.282Z,14.87
2019-02-20T19:41:15.885Z,11.63
2019-02-20T19:43:44.813Z,13.60
2019-02-20T19:46:23.835Z,9.47
2019-02-20T19:48:42.096Z,17.07
2019-02-20T19:50:56.010Z,19.83
2019-02-20T19:53:16.913Z,16.13
2019-02-20T19:55:44.052Z,8.77
2019-02-20T19:58:04.036Z,12.97
2019-02-20T20:00:27.134Z,12.07
2019-02-20T20:02:58.811Z,11.67
2019-02-20T20:05:44.259Z,13.53
2019-02-20T20:08:19.783Z,9.10
2019-02-20T20:10:56.097Z,21.53
2019-02-20T20:13:19.514Z,13.57
2019-02-20T20:15:36.230Z,14.50
2019-02-20T20:18:01.994Z,10.90
2019-02-20T20:20:15.784Z,14.53
2019-02-20T20:22:46.221Z,9.30
2019-02-20T20:25:05.585Z,10.40
2019-02-20T20:27:28.579Z,13.60
2019-02-20T20:29:47.807Z,14.73
2019-02-20T20:32:52.513Z,10.40
2019-02-20T20:35:27.230Z,13.77
2019-02-20T20:37:49.209Z,20.27
2019-02-20T20:40:36.805Z,16.90
2019-02-20T20:42:56.376Z,17.33
2019-02-20T20:45:24.895Z,22.77
2019-02-20T20:47:47.905Z,18.87
2019-02-20T20:50:11.165Z,29.77
2019-02-20T20:52:42.847Z,49.50
2019-02-20T20:55:09.545Z,42.90
2019-02-20T20:57:56.242Z,26.60
2019-02-20T21:00:25.455Z,23.83
2019-02-20T21:02:40.695Z,24.90
2019-02-20T21:05:10.886Z,27.97
2019-02-20T21:07:39.326Z,23.07
2019-02-20T21:10:00.614Z,22.37
2019-02-20T21:12:23.280Z,23.53
2019-02-20T21:14:43.265Z,21.23
2019-02-20T21:17:27.535Z,17.17
2019-02-20T21:20:08.192Z,14.27
2019-02-20T21:22:36.695Z,19.07
2019-02-20T21:25:22.378Z,24.77
2019-02-20T21:28:07.719Z,31.90
2019-02-20T21:30:18.636Z,22.80
2019-02-20T21:32:52.235Z,26.63
2019-02-20T21:35:12.359Z,28.93
2019-02-20T21:37:42.696Z,21.50
2019-02-20T21:40:19.286Z,23.23
2019-02-20T21:42:44.873Z,28.13
2019-02-20T21:45:31.835Z,29.93
2019-02-20T21:47:42.503Z,31.30
2019-02-20T21:50:31.001Z,47.07
2019-02-20T21:52:47.166Z,48.30
2019-02-20T21:55:35.337Z,43.93
2019-02-20T21:57:55.122Z,41.90
2019-02-20T22:00:22.786Z,44.53
2019-02-20T22:03:09.822Z,34.97
2019-02-20T22:05:41.036Z,34.40
2019-02-20T22:08:10.955Z,34.47
2019-02-20T22:10:45.574Z,35.77
2019-02-20T22:13:27.935Z,38.77
2019-02-20T22:15:41.328Z,38.10
2019-02-20T22:18:09.584Z,38.53
2019-02-20T22:20:42.885Z,46.23
2019-02-20T22:23:02.045Z,48.33
2019-02-20T22:25:27.665Z,47.60
2019-02-20T22:27:53.592Z,47.70
2019-02-20T22:30:15.924Z,64.00
2019-02-20T22:32:32.009Z,73.00
2019-02-20T22:34:51.097Z,77.83
2019-02-20T22:37:04.610Z,77.03
2019-02-20T22:39:18.134Z,60.47
2019-02-20T22:41:40.371Z,65.57
2019-02-20T22:44:19.399Z,64.97
2019-02-20T22:46:33.832Z,57.60
2019-02-20T22:48:50.659Z,49.90
2019-02-20T22:51:16.181Z,45.60
2019-02-20T22:54:04.694Z,43.27
2019-02-20T22:56:57.872Z,39.33
2019-02-20T22:59:41.611Z,35.83
2019-02-20T23:02:23.511Z,37.70
2019-02-20T23:04:49.130Z,35.00
2019-02-20T23:07:17.910Z,34.27
2019-02-20T23:10:03.711Z,31.37
2019-02-20T23:12:15.891Z,34.17
2019-02-20T23:14:58.212Z,30.93
2019-02-20T23:17:04.430Z,31.37
2019-02-20T23:19:10.624Z,34.47
2019-02-20T23:21:16.882Z,35.30
2019-02-20T23:23:23.149Z,43.90
2019-02-20T23:25:29.605Z,41.27
2019-02-20T23:27:35.863Z,33.23
2019-02-20T23:29:42.129Z,40.60
2019-02-20T23:31:48.285Z,34.03
2019-02-20T23:33:54.426Z,33.60
2019-02-20T23:36:00.703Z,34.07
2019-02-20T23:38:06.847Z,34.10
2019-02-20T23:40:13.525Z,38.73
2019-02-20T23:42:19.766Z,29.93
2019-02-20T23:44:25.931Z,34.23
2019-02-20T23:46:32.207Z,26.97
2019-02-20T23:48:38.366Z,31.60
2019-02-20T23:50:45.634Z,31.20
2019-02-20T23:52:51.903Z,31.57
2019-02-20T23:54:58.162Z,30.87
2019-02-20T23:57:04.606Z,30.77
2019-02-20T23:59:10.783Z,34.37
